Time;durP1;ratioP1;P1;durP2;ratioP2;P2;SDS_P1;SDS_P2;PMS_P1;PMS_P2;Temp;Humidity;BMP_temperature;BMP_pressure;BME280_temperature;BME280_humidity;BME280_pressure;Samples;Min_cycle;Max_cycle;Signal;HPM_P1;HPM_P2
2024/01/23 00:02:20;;;;;;;2.80;1.37;;;8.70;99.90;;;;;;5062716;28;20260;-64
2024/01/23 00:04:46;;;;;;;2.13;1.13;;;8.70;99.90;;;;;;5055131;28;20430;-63
2024/01/23 00:07:11;;;;;;;2.60;1.30;;;8.70;99.90;;;;;;5051586;28;20199;-65
2024/01/23 00:09:37;;;;;;;2.70;1.27;;;8.60;99.90;;;;;;5054915;28;20251;-65
2024/01/23 00:12:05;;;;;;;3.93;1.40;;;8.70;99.90;;;;;;5046731;28;20262;-66
2024/01/23 00:14:32;;;;;;;4.60;1.30;;;8.70;99.90;;;;;;5056835;28;20715;-65
2024/01/23 00:16:57;;;;;;;2.80;1.23;;;8.80;99.90;;;;;;5074884;28;20427;-65
2024/01/23 00:19:23;;;;;;;3.10;1.53;;;8.80;99.90;;;;;;5074703;28;20399;-65
2024/01/23 00:21:48;;;;;;;2.17;1.43;;;8.70;99.90;;;;;;5066907;28;20254;-65
2024/01/23 00:24:14;;;;;;;2.53;1.47;;;8.70;99.90;;;;;;5054565;28;20167;-64
2024/01/23 00:26:40;;;;;;;3.80;1.47;;;8.80;99.90;;;;;;5054543;28;20304;-65
2024/01/23 00:29:07;;;;;;;5.40;2.53;;;9.00;99.90;;;;;;5054371;28;20211;-65
2024/01/23 00:31:34;;;;;;;2.77;1.00;;;9.00;99.90;;;;;;5060139;28;20626;-65
2024/01/23 00:34:00;;;;;;;2.53;1.20;;;9.00;99.90;;;;;;5074557;28;20503;-65
2024/01/23 00:36:25;;;;;;;2.60;1.30;;;9.00;99.90;;;;;;5074593;28;20456;-65
2024/01/23 00:38:51;;;;;;;2.00;1.17;;;8.90;99.90;;;;;;5070148;28;20162;-66
2024/01/23 00:41:16;;;;;;;3.30;1.30;;;8.90;99.90;;;;;;5057918;28;20180;-65
2024/01/23 00:43:42;;;;;;;3.30;1.27;;;8.80;99.90;;;;;;5074256;28;20177;-66
2024/01/23 00:46:08;;;;;;;2.30;1.07;;;8.70;99.90;;;;;;5074205;28;20679;-66
2024/01/23 00:48:33;;;;;;;1.33;1.17;;;8.80;99.90;;;;;;5056050;28;20674;-66
2024/01/23 00:50:59;;;;;;;3.30;1.23;;;9.00;99.90;;;;;;5073822;28;20166;-66
2024/01/23 00:53:24;;;;;;;7.50;1.73;;;9.00;99.90;;;;;;5053935;28;20219;-66
2024/01/23 00:55:50;;;;;;;4.40;1.20;;;8.70;99.90;;;;;;5053965;28;20186;-66
2024/01/23 00:58:16;;;;;;;3.60;1.70;;;8.70;99.90;;;;;;5053219;28;20263;-65
2024/01/23 01:00:44;;;;;;;2.73;1.30;;;8.50;99.90;;;;;;5053873;28;20569;-65
2024/01/23 01:03:10;;;;;;;3.83;1.40;;;8.70;99.90;;;;;;5072070;28;20215;-66
2024/01/23 01:05:36;;;;;;;4.10;1.67;;;8.60;99.90;;;;;;5073738;28;20496;-66
2024/01/23 01:08:03;;;;;;;5.20;1.40;;;8.60;99.90;;;;;;5073900;28;20470;-66
2024/01/23 01:10:29;;;;;;;4.47;1.47;;;8.60;99.90;;;;;;5074034;28;20160;-65
2024/01/23 01:12:54;;;;;;;3.00;1.43;;;8.40;99.90;;;;;;5058073;28;20409;-64
2024/01/23 01:15:20;;;;;;;4.73;1.67;;;8.40;99.90;;;;;;5054045;28;20159;-64
2024/01/23 01:17:46;;;;;;;3.63;1.40;;;8.10;99.90;;;;;;5054392;28;20253;-64
2024/01/23 01:20:11;;;;;;;8.87;2.27;;;7.90;99.90;;;;;;5054839;28;20266;-64
2024/01/23 01:22:39;;;;;;;5.43;1.70;;;7.80;99.90;;;;;;5064336;28;20249;-63
2024/01/23 01:25:04;;;;;;;5.00;1.53;;;7.70;99.90;;;;;;5074022;28;20173;-64
2024/01/23 01:27:30;;;;;;;3.27;1.67;;;7.60;99.90;;;;;;5073647;28;20451;-64
2024/01/23 01:29:55;;;;;;;5.90;1.60;;;7.50;99.90;;;;;;5073793;28;20193;-64
2024/01/23 01:32:21;;;;;;;5.07;2.73;;;7.50;99.90;;;;;;5061680;28;20182;-65
2024/01/23 01:34:46;;;;;;;5.20;1.40;;;7.40;99.90;;;;;;5053364;28;20669;-64
2024/01/23 01:37:12;;;;;;;4.33;1.83;;;7.40;99.90;;;;;;5035349;28;20695;-65
2024/01/23 01:39:37;;;;;;;4.33;1.47;;;7.60;99.90;;;;;;5053377;28;20626;-66
2024/01/23 01:42:03;;;;;;;5.70;1.80;;;7.70;99.90;;;;;;5061678;28;20664;-66
2024/01/23 01:44:31;;;;;;;3.10;1.63;;;7.80;99.90;;;;;;5073156;28;20610;-66
2024/01/23 01:46:57;;;;;;;6.03;1.53;;;7.80;99.90;;;;;;5072925;28;20194;-66
2024/01/23 01:49:22;;;;;;;7.20;2.00;;;7.70;99.90;;;;;;5055436;28;20442;-64
2024/01/23 01:51:49;;;;;;;6.23;1.63;;;7.80;99.90;;;;;;5067013;28;20303;-64
2024/01/23 01:54:16;;;;;;;5.10;1.53;;;7.80;99.90;;;;;;5053186;28;20166;-65
2024/01/23 01:56:42;;;;;;;3.27;1.50;;;7.70;99.90;;;;;;5053164;28;20416;-65
2024/01/23 01:59:09;;;;;;;2.87;1.73;;;7.90;99.90;;;;;;5049797;28;20941;-65
2024/01/23 02:01:35;;;;;;;7.67;1.50;;;8.00;99.90;;;;;;5057578;28;20248;-64
2024/01/23 02:04:01;;;;;;;6.37;1.60;;;7.90;99.90;;;;;;5073025;28;20502;-65
2024/01/23 02:06:27;;;;;;;3.03;1.30;;;7.90;99.90;;;;;;5072890;28;20434;-65
2024/01/23 02:08:54;;;;;;;4.70;1.70;;;7.90;99.90;;;;;;5072747;28;20281;-65
2024/01/23 02:11:20;;;;;;;4.30;1.57;;;8.00;99.90;;;;;;5070910;28;20408;-64
2024/01/23 02:13:46;;;;;;;3.30;1.63;;;7.90;99.90;;;;;;5053239;28;20401;-65
2024/01/23 02:16:11;;;;;;;3.50;1.47;;;8.00;99.90;;;;;;5053147;28;20184;-64
2024/01/23 02:18:37;;;;;;;9.10;1.97;;;7.90;99.90;;;;;;5035358;28;20534;-65
2024/01/23 02:21:03;;;;;;;5.50;1.60;;;7.70;99.90;;;;;;5052912;28;20174;-66
2024/01/23 02:23:29;;;;;;;4.63;1.27;;;7.80;99.90;;;;;;5072297;28;20182;-65
2024/01/23 02:25:55;;;;;;;4.80;1.50;;;7.70;99.90;;;;;;5072945;28;20275;-66
2024/01/23 02:28:21;;;;;;;5.53;1.77;;;7.60;99.90;;;;;;5072351;28;21049;-66
2024/01/23 02:30:46;;;;;;;5.57;2.00;;;7.80;99.90;;;;;;5072865;28;20593;-66
2024/01/23 02:33:13;;;;;;;5.93;1.77;;;8.00;99.90;;;;;;5055299;28;20270;-65
2024/01/23 02:35:39;;;;;;;7.00;1.73;;;8.00;99.90;;;;;;5053938;28;20181;-65
2024/01/23 02:38:05;;;;;;;6.13;1.80;;;8.00;99.90;;;;;;5073083;28;20480;-64
2024/01/23 02:40:30;;;;;;;7.30;2.50;;;7.90;99.90;;;;;;5072671;28;20169;-64
2024/01/23 02:42:56;;;;;;;5.23;1.43;;;7.80;99.90;;;;;;5057539;28;20946;-64
2024/01/23 02:45:23;;;;;;;6.23;1.60;;;7.60;99.90;;;;;;5052801;28;20571;-64
2024/01/23 02:47:50;;;;;;;5.47;1.70;;;7.70;99.90;;;;;;5035017;28;20321;-65
2024/01/23 02:50:15;;;;;;;7.60;2.20;;;7.60;99.90;;;;;;5034619;28;20443;-64
2024/01/23 02:52:41;;;;;;;5.37;1.77;;;7.50;99.90;;;;;;5065062;28;20173;-64
2024/01/23 02:55:07;;;;;;;5.37;2.03;;;7.50;99.90;;;;;;5074407;28;20170;-66
2024/01/23 02:57:32;;;;;;;6.13;1.90;;;7.40;99.90;;;;;;5073474;28;20209;-65
2024/01/23 02:59:58;;;;;;;5.40;2.33;;;7.50;99.90;;;;;;5072740;28;20856;-66
2024/01/23 03:02:24;;;;;;;6.57;2.30;;;7.60;99.90;;;;;;5062489;28;20205;-65
2024/01/23 03:04:50;;;;;;;6.37;2.00;;;7.50;99.90;;;;;;5052913;28;20174;-65
2024/01/23 03:07:17;;;;;;;4.77;1.80;;;7.60;99.90;;;;;;5052536;28;20197;-66
2024/01/23 03:09:43;;;;;;;6.20;2.00;;;7.60;99.90;;;;;;5052337;28;20405;-66
2024/01/23 03:12:22;;;;;;;8.57;2.30;;;7.70;99.90;;;;;;5060299;28;20407;-66
2024/01/23 03:14:49;;;;;;;8.10;2.13;;;7.80;99.90;;;;;;5051024;28;20407;-65
2024/01/23 03:17:17;;;;;;;10.20;2.27;;;7.80;99.90;;;;;;5072239;28;20428;-63
2024/01/23 03:19:43;;;;;;;8.27;2.60;;;7.90;99.90;;;;;;5072560;28;20442;-66
2024/01/23 03:22:10;;;;;;;7.10;2.03;;;7.80;99.90;;;;;;5067891;28;20408;-65
2024/01/23 03:24:40;;;;;;;9.37;2.30;;;8.00;99.90;;;;;;5055668;28;20417;-66
2024/01/23 03:27:06;;;;;;;5.23;1.83;;;8.00;99.90;;;;;;5055795;28;20436;-66
2024/01/23 03:29:41;;;;;;;9.77;2.40;;;8.10;99.90;;;;;;5055541;28;20437;-65
2024/01/23 03:32:07;;;;;;;8.10;2.80;;;8.20;99.90;;;;;;5063198;28;20414;-65
2024/01/23 03:34:33;;;;;;;10.00;3.27;;;8.00;99.90;;;;;;5075522;28;20769;-65
2024/01/23 03:37:01;;;;;;;5.23;2.23;;;8.00;99.90;;;;;;5075679;28;20423;-66
2024/01/23 03:39:26;;;;;;;12.43;2.80;;;7.90;99.90;;;;;;5075405;28;20438;-66
2024/01/23 03:41:52;;;;;;;9.80;2.80;;;7.90;99.90;;;;;;5070112;28;20427;-66
2024/01/23 03:44:18;;;;;;;8.80;2.50;;;8.00;99.90;;;;;;5055307;28;20482;-66
2024/01/23 03:46:43;;;;;;;11.90;3.00;;;8.20;99.90;;;;;;5055843;28;20195;-66
2024/01/23 03:49:09;;;;;;;10.20;2.90;;;8.20;99.90;;;;;;5055086;28;20186;-65
2024/01/23 03:51:34;;;;;;;10.80;2.83;;;8.20;99.90;;;;;;5057658;28;20529;-65
2024/01/23 03:54:00;;;;;;;12.67;3.20;;;8.30;99.90;;;;;;5075432;28;20236;-65
2024/01/23 03:56:25;;;;;;;8.00;2.97;;;8.50;99.90;;;;;;5057088;28;20668;-66
2024/01/23 03:58:51;;;;;;;11.57;2.90;;;8.50;99.90;;;;;;5074988;28;20308;-66
2024/01/23 04:01:16;;;;;;;5.87;2.43;;;8.50;99.90;;;;;;5074941;28;20214;-66
2024/01/23 04:03:42;;;;;;;10.60;4.10;;;8.50;99.90;;;;;;5037491;28;20552;-65
2024/01/23 04:06:07;;;;;;;8.77;3.13;;;8.50;99.90;;;;;;5034835;28;20194;-66
2024/01/23 04:08:33;;;;;;;10.83;3.13;;;8.30;99.90;;;;;;5035513;28;20196;-66
2024/01/23 04:10:58;;;;;;;8.70;2.27;;;8.40;99.90;;;;;;5034798;28;20239;-66
2024/01/23 04:13:24;;;;;;;13.13;3.20;;;8.30;99.90;;;;;;5069531;28;20171;-65
2024/01/23 04:15:49;;;;;;;7.47;2.80;;;8.30;99.90;;;;;;5056727;28;20209;-66
2024/01/23 04:18:16;;;;;;;8.70;3.43;;;8.40;99.90;;;;;;5075209;28;20173;-66
2024/01/23 04:20:41;;;;;;;14.53;3.73;;;8.30;99.90;;;;;;5074849;28;20216;-66
2024/01/23 04:23:07;;;;;;;10.47;3.13;;;8.20;99.90;;;;;;5059517;28;20890;-65
2024/01/23 04:25:32;;;;;;;8.23;3.30;;;8.30;99.90;;;;;;5054667;28;20191;-64
2024/01/23 04:27:58;;;;;;;9.13;2.80;;;8.30;99.90;;;;;;5054663;28;20271;-65
2024/01/23 04:30:25;;;;;;;6.67;2.10;;;8.20;99.90;;;;;;5054670;28;20167;-65
2024/01/23 04:32:50;;;;;;;9.63;2.90;;;8.10;99.90;;;;;;5058732;28;20199;-66
2024/01/23 04:35:16;;;;;;;10.20;2.43;;;7.90;99.90;;;;;;5054674;28;20410;-65
2024/01/23 04:37:42;;;;;;;13.50;3.30;;;7.90;99.90;;;;;;5054269;28;20223;-65
2024/01/23 04:40:10;;;;;;;7.13;2.90;;;7.90;99.90;;;;;;5054173;28;20411;-65
2024/01/23 04:42:36;;;;;;;5.80;2.60;;;7.90;99.90;;;;;;5064895;28;20168;-65
2024/01/23 04:45:03;;;;;;;10.27;3.73;;;7.90;99.90;;;;;;5056058;28;20430;-65
2024/01/23 04:47:28;;;;;;;12.87;3.27;;;8.10;99.90;;;;;;5073840;28;20526;-65
2024/01/23 04:49:54;;;;;;;8.73;2.60;;;8.10;99.90;;;;;;5056056;28;20450;-66
2024/01/23 04:52:20;;;;;;;8.97;2.83;;;8.10;99.90;;;;;;5065957;28;20166;-65
2024/01/23 04:54:45;;;;;;;8.13;3.00;;;8.00;99.90;;;;;;5053904;28;20181;-65
2024/01/23 04:57:14;;;;;;;6.87;2.20;;;7.90;99.90;;;;;;5053873;28;20564;-65
2024/01/23 04:59:40;;;;;;;7.57;2.07;;;7.70;99.90;;;;;;5035912;28;20236;-65
2024/01/23 05:02:05;;;;;;;7.13;2.20;;;7.80;99.90;;;;;;5059825;28;20416;-65
2024/01/23 05:04:31;;;;;;;5.00;2.00;;;7.90;99.90;;;;;;5073631;28;20236;-65
2024/01/23 05:06:56;;;;;;;6.53;1.70;;;7.80;99.90;;;;;;5073777;28;20188;-65
2024/01/23 05:09:22;;;;;;;10.33;2.17;;;7.80;99.90;;;;;;5073876;28;20177;-65
2024/01/23 05:11:48;;;;;;;12.93;2.37;;;7.90;99.90;;;;;;5070435;28;20205;-65
2024/01/23 05:14:16;;;;;;;7.50;1.83;;;7.80;99.90;;;;;;5054012;28;20262;-65
2024/01/23 05:16:42;;;;;;;8.70;2.23;;;7.90;99.90;;;;;;5053861;28;20371;-65
2024/01/23 05:19:07;;;;;;;2.53;1.50;;;7.70;99.90;;;;;;5053721;28;20854;-66
2024/01/23 05:21:33;;;;;;;4.17;1.33;;;7.70;99.90;;;;;;5057073;28;20641;-65
2024/01/23 05:24:00;;;;;;;5.80;1.73;;;7.70;99.90;;;;;;5073437;28;20168;-66
2024/01/23 05:26:25;;;;;;;8.00;2.03;;;7.70;99.90;;;;;;5073415;28;20193;-65
2024/01/23 05:28:51;;;;;;;6.07;1.90;;;7.60;99.90;;;;;;5073272;28;20451;-66
2024/01/23 05:31:16;;;;;;;5.27;1.40;;;7.60;99.90;;;;;;5073284;28;20224;-65
2024/01/23 05:33:42;;;;;;;6.23;2.10;;;7.60;99.90;;;;;;5054679;28;20260;-65
2024/01/23 05:36:07;;;;;;;6.33;2.17;;;7.60;99.90;;;;;;5053357;28;20182;-65
2024/01/23 05:38:33;;;;;;;8.33;2.97;;;7.50;99.90;;;;;;5053300;28;20188;-64
2024/01/23 05:40:58;;;;;;;8.63;1.90;;;7.40;99.90;;;;;;5053321;28;20641;-65
2024/01/23 05:43:24;;;;;;;4.40;1.80;;;7.30;99.90;;;;;;5068651;28;20177;-65
2024/01/23 05:45:49;;;;;;;6.30;2.17;;;7.30;99.90;;;;;;5073575;28;20712;-65
2024/01/23 05:48:15;;;;;;;5.30;1.70;;;7.30;99.90;;;;;;5073573;28;20189;-65
2024/01/23 05:50:41;;;;;;;5.97;1.70;;;7.40;99.90;;;;;;5073253;28;20544;-65
2024/01/23 05:53:06;;;;;;;7.00;1.83;;;7.40;99.90;;;;;;5059903;28;20169;-64
2024/01/23 05:55:32;;;;;;;3.60;2.10;;;7.40;99.90;;;;;;5053391;28;20660;-65
2024/01/23 05:57:58;;;;;;;8.90;1.87;;;7.40;99.90;;;;;;5053049;28;20169;-65
2024/01/23 06:00:23;;;;;;;3.63;1.50;;;7.50;99.90;;;;;;5053018;28;20224;-65
2024/01/23 06:02:49;;;;;;;7.43;2.30;;;7.40;99.90;;;;;;5064641;28;20415;-67
2024/01/23 06:05:15;;;;;;;4.33;1.50;;;7.40;99.90;;;;;;5073423;28;20184;-66
2024/01/23 06:07:43;;;;;;;3.80;1.10;;;7.40;99.90;;;;;;5073121;28;20216;-65
2024/01/23 06:10:09;;;;;;;6.17;1.30;;;7.30;99.90;;;;;;5042555;28;20173;-64
2024/01/23 06:12:35;;;;;;;5.77;1.37;;;7.30;99.90;;;;;;5050343;28;20395;-65
2024/01/23 06:15:01;;;;;;;7.03;1.63;;;7.30;99.90;;;;;;5073139;28;20561;-65
2024/01/23 06:17:26;;;;;;;2.10;1.13;;;7.30;99.90;;;;;;5054700;28;21026;-64
2024/01/23 06:19:52;;;;;;;3.67;1.00;;;7.30;99.90;;;;;;5073125;28;20187;-65
2024/01/23 06:22:17;;;;;;;4.40;1.30;;;7.10;99.90;;;;;;5066457;28;20567;-66
2024/01/23 06:25:00;;;;;;;3.03;1.73;;;7.00;99.90;;;;;;5052730;28;20171;-64
2024/01/23 06:27:26;;;;;;;2.50;1.40;;;7.00;99.90;;;;;;5052215;28;20193;-65
2024/01/23 06:29:51;;;;;;;3.90;1.30;;;7.00;99.90;;;;;;5052483;28;20423;-65
2024/01/23 06:32:17;;;;;;;2.80;1.27;;;6.90;99.90;;;;;;5058541;28;20635;-65
2024/01/23 06:34:42;;;;;;;2.70;0.90;;;7.00;99.90;;;;;;5072732;28;20168;-65
2024/01/23 06:37:07;;;;;;;2.23;1.43;;;7.00;99.90;;;;;;5072294;28;20185;-65
2024/01/23 06:39:33;;;;;;;3.53;1.10;;;7.00;99.90;;;;;;5072923;28;20169;-65
2024/01/23 06:41:58;;;;;;;2.00;1.10;;;7.20;99.90;;;;;;5063827;28;20169;-66
2024/01/23 06:44:24;;;;;;;2.00;0.90;;;7.20;99.90;;;;;;5073056;28;20179;-65
2024/01/23 06:46:50;;;;;;;2.13;1.00;;;7.20;99.90;;;;;;5072383;28;20580;-66
2024/01/23 06:49:15;;;;;;;2.67;0.93;;;7.30;99.90;;;;;;5072677;28;20628;-66
2024/01/23 06:51:41;;;;;;;4.30;1.47;;;7.20;99.90;;;;;;5071822;28;20176;-65
2024/01/23 06:54:07;;;;;;;2.40;1.10;;;7.20;99.90;;;;;;5053550;28;20168;-65
2024/01/23 06:56:33;;;;;;;2.47;1.10;;;7.00;99.90;;;;;;5056936;28;20203;-65
2024/01/23 06:58:59;;;;;;;4.37;1.00;;;7.00;99.90;;;;;;5057200;28;20771;-65
2024/01/23 07:01:26;;;;;;;3.00;1.00;;;6.90;99.90;;;;;;5055998;28;20412;-65
2024/01/23 07:03:52;;;;;;;2.70;0.70;;;6.80;99.90;;;;;;5075054;28;20173;-66
2024/01/23 07:06:17;;;;;;;1.63;0.80;;;6.70;99.90;;;;;;5076268;28;20791;-66
2024/01/23 07:08:43;;;;;;;3.17;0.80;;;6.70;99.90;;;;;;5076205;28;20707;-66
2024/01/23 07:11:09;;;;;;;4.07;1.07;;;6.60;99.90;;;;;;5076004;28;20645;-65
2024/01/23 07:13:34;;;;;;;1.70;0.97;;;6.60;99.90;;;;;;5059745;28;20603;-65
2024/01/23 07:16:00;;;;;;;3.53;0.90;;;6.60;99.90;;;;;;5055763;28;20189;-65
2024/01/23 07:18:25;;;;;;;1.23;0.80;;;6.60;99.90;;;;;;5055987;28;20173;-65
2024/01/23 07:20:51;;;;;;;1.93;1.00;;;6.50;99.90;;;;;;5055891;28;20174;-65
2024/01/23 07:23:17;;;;;;;4.60;1.17;;;6.30;99.90;;;;;;5069439;28;20171;-65
2024/01/23 07:25:42;;;;;;;1.10;0.77;;;6.30;99.90;;;;;;5075670;28;20468;-66
2024/01/23 07:28:08;;;;;;;1.40;0.83;;;6.40;99.90;;;;;;5075777;28;20201;-65
2024/01/23 07:30:33;;;;;;;2.43;1.00;;;6.30;99.90;;;;;;5072399;28;20658;-65
2024/01/23 07:32:59;;;;;;;3.87;1.20;;;6.30;99.90;;;;;;5064991;28;20177;-64
2024/01/23 07:35:24;;;;;;;1.10;0.67;;;6.20;99.90;;;;;;5055552;28;20608;-65
2024/01/23 07:37:50;;;;;;;1.20;0.90;;;6.30;99.90;;;;;;5056142;28;20264;-65
2024/01/23 07:40:16;;;;;;;2.87;1.17;;;6.40;99.90;;;;;;5055256;28;20541;-65
2024/01/23 07:42:41;;;;;;;4.13;1.17;;;6.50;99.90;;;;;;5063821;28;20180;-65
2024/01/23 07:45:07;;;;;;;2.50;1.10;;;6.60;99.90;;;;;;5075138;28;20678;-65
2024/01/23 07:47:32;;;;;;;3.70;1.00;;;6.40;99.90;;;;;;5057277;28;20185;-64
2024/01/23 07:49:58;;;;;;;5.70;1.43;;;6.50;99.90;;;;;;5075284;28;20180;-65
2024/01/23 07:52:26;;;;;;;5.83;1.77;;;6.60;99.90;;;;;;5069322;28;20171;-66
2024/01/23 07:54:53;;;;;;;3.97;1.63;;;6.60;99.90;;;;;;5055491;28;20703;-65
2024/01/23 07:57:18;;;;;;;3.90;1.70;;;6.60;99.90;;;;;;5054947;28;20509;-63
2024/01/23 07:59:44;;;;;;;2.93;1.80;;;6.70;99.90;;;;;;5037135;28;20487;-64
2024/01/23 08:02:09;;;;;;;5.53;2.10;;;6.80;99.90;;;;;;5058683;28;20655;-64
2024/01/23 08:04:35;;;;;;;7.50;2.13;;;6.80;99.90;;;;;;5075276;28;20580;-64
2024/01/23 08:07:00;;;;;;;7.03;1.80;;;6.80;99.90;;;;;;5074782;28;20554;-64
2024/01/23 08:09:26;;;;;;;5.10;1.97;;;7.00;99.90;;;;;;5071381;28;20165;-64
2024/01/23 08:11:52;;;;;;;3.30;1.23;;;6.90;99.90;;;;;;5053908;28;20181;-65
2024/01/23 08:14:18;;;;;;;3.60;1.90;;;7.00;99.90;;;;;;5074767;28;20259;-65
2024/01/23 08:16:44;;;;;;;3.63;1.60;;;7.10;99.90;;;;;;5074687;28;20443;-65
2024/01/23 08:19:10;;;;;;;4.30;1.20;;;7.20;99.90;;;;;;5074700;28;20715;-65
2024/01/23 08:21:36;;;;;;;5.00;1.40;;;7.00;99.90;;;;;;5074631;28;20483;-64
2024/01/23 08:24:01;;;;;;;5.90;1.93;;;7.00;99.90;;;;;;5055745;28;20184;-64
2024/01/23 08:26:27;;;;;;;3.87;1.30;;;7.20;99.90;;;;;;5054484;28;20283;-64
2024/01/23 08:28:52;;;;;;;5.70;2.07;;;7.10;99.90;;;;;;5054465;28;20193;-65
2024/01/23 08:31:18;;;;;;;5.43;2.00;;;7.10;99.90;;;;;;5054534;28;20173;-65
2024/01/23 08:33:44;;;;;;;3.20;1.50;;;7.00;99.90;;;;;;5070702;28;20598;-65
2024/01/23 08:36:09;;;;;;;7.90;2.20;;;6.90;99.90;;;;;;5074989;28;20219;-65
2024/01/23 08:38:36;;;;;;;4.60;1.93;;;6.90;99.90;;;;;;5074770;28;20636;-65
2024/01/23 08:41:02;;;;;;;2.23;1.50;;;6.90;99.90;;;;;;5074442;28;20537;-65
2024/01/23 08:43:27;;;;;;;3.27;1.60;;;7.00;99.90;;;;;;5060304;28;20415;-66
2024/01/23 08:45:53;;;;;;;5.10;2.03;;;7.00;99.90;;;;;;5054211;28;20222;-65
2024/01/23 08:48:21;;;;;;;4.20;1.73;;;7.10;99.90;;;;;;5060855;28;20207;-65
2024/01/23 08:50:48;;;;;;;8.87;2.40;;;7.30;99.90;;;;;;5063014;28;20260;-65
2024/01/23 08:53:13;;;;;;;6.13;1.73;;;7.30;99.90;;;;;;5057270;28;20414;-65
2024/01/23 08:55:39;;;;;;;7.63;2.10;;;7.20;99.90;;;;;;5038925;28;20433;-65
2024/01/23 08:58:04;;;;;;;4.07;1.87;;;7.20;99.90;;;;;;5067003;28;20684;-64
2024/01/23 09:00:30;;;;;;;3.80;1.60;;;7.30;99.90;;;;;;5073831;28;20169;-66
2024/01/23 09:02:56;;;;;;;6.50;2.00;;;7.40;99.90;;;;;;5044095;28;20172;-65
2024/01/23 09:05:21;;;;;;;11.10;2.00;;;7.50;99.90;;;;;;5053752;28;20419;-65
2024/01/23 09:07:47;;;;;;;5.40;2.40;;;7.40;99.90;;;;;;5055814;28;20206;-66
2024/01/23 09:10:12;;;;;;;4.63;1.50;;;7.40;99.90;;;;;;5073643;28;20632;-65
2024/01/23 09:12:38;;;;;;;4.93;1.63;;;7.40;99.90;;;;;;5073599;28;20170;-65
2024/01/23 09:15:09;;;;;;;6.27;2.00;;;7.40;99.90;;;;;;5069224;28;20169;-62
2024/01/23 09:17:35;;;;;;;4.80;2.10;;;7.40;99.90;;;;;;5052143;28;20490;-63
2024/01/23 09:20:00;;;;;;;5.73;1.80;;;7.60;99.90;;;;;;5053479;28;20304;-65
2024/01/23 09:22:29;;;;;;;4.20;1.40;;;7.60;99.90;;;;;;5053511;28;20241;-65
2024/01/23 09:24:54;;;;;;;7.67;1.53;;;7.60;99.90;;;;;;5072677;28;20181;-65
2024/01/23 09:27:20;;;;;;;2.67;1.70;;;7.50;99.90;;;;;;5055073;28;20440;-64
2024/01/23 09:29:45;;;;;;;5.37;2.10;;;7.70;99.90;;;;;;5072745;28;20176;-65
2024/01/23 09:32:11;;;;;;;8.17;1.77;;;8.00;99.90;;;;;;5067856;28;20252;-66
2024/01/23 09:34:37;;;;;;;3.80;1.97;;;8.20;99.90;;;;;;5053140;28;20158;-64
2024/01/23 09:37:02;;;;;;;6.07;1.30;;;8.30;99.90;;;;;;5051197;28;20183;-66
2024/01/23 09:39:28;;;;;;;4.83;1.20;;;8.40;99.90;;;;;;5052165;28;20199;-64
2024/01/23 09:41:59;;;;;;;3.67;1.40;;;8.60;99.90;;;;;;5055974;28;20166;-64
2024/01/23 09:44:26;;;;;;;4.40;1.60;;;8.60;99.90;;;;;;5073360;28;20147;-64
2024/01/23 09:46:51;;;;;;;1.80;1.50;;;8.30;99.90;;;;;;5079216;22;20576;-67
2024/01/23 09:49:18;;;;;;;2.80;1.70;;;8.20;99.90;;;;;;5053032;28;20548;-68
2024/01/23 09:51:47;;;;;;;2.53;1.43;;;8.10;99.90;;;;;;5053376;28;20658;-67
2024/01/23 09:54:17;;;;;;;2.70;1.20;;;8.20;99.90;;;;;;5052960;28;20402;-67
2024/01/23 09:56:43;;;;;;;7.10;1.30;;;8.10;99.90;;;;;;5052736;28;20630;-68
2024/01/23 09:59:12;;;;;;;3.27;1.40;;;8.30;99.90;;;;;;5052792;28;20441;-67
2024/01/23 10:01:38;;;;;;;5.17;1.37;;;8.40;99.90;;;;;;5052830;28;20411;-67
2024/01/23 10:04:05;;;;;;;5.30;1.30;;;8.40;99.90;;;;;;5032960;28;20412;-67
2024/01/23 10:06:32;;;;;;;3.60;1.90;;;8.20;99.90;;;;;;5052657;28;20439;-66
2024/01/23 10:08:58;;;;;;;2.43;1.40;;;8.10;99.90;;;;;;5052632;28;20448;-67
2024/01/23 10:11:26;;;;;;;5.77;1.70;;;8.00;99.90;;;;;;5052833;28;20409;-67
2024/01/23 10:13:56;;;;;;;2.50;1.37;;;8.30;99.90;;;;;;5052858;28;20409;-67
2024/01/23 10:16:22;;;;;;;3.30;1.50;;;8.60;99.90;;;;;;5052418;28;20808;-67
2024/01/23 10:18:49;;;;;;;5.57;1.47;;;8.90;99.90;;;;;;5053104;28;20968;-67
2024/01/23 10:21:22;;;;;;;4.50;1.50;;;9.10;99.90;;;;;;5052453;28;20437;-67
2024/01/23 10:23:51;;;;;;;4.77;1.73;;;9.10;99.90;;;;;;5052920;28;20430;-66
2024/01/23 10:26:17;;;;;;;5.57;1.80;;;9.40;99.90;;;;;;5052191;28;20437;-68
2024/01/23 10:28:44;;;;;;;3.10;1.20;;;9.70;99.90;;;;;;5052782;28;20433;-67
2024/01/23 10:31:10;;;;;;;4.37;1.23;;;9.70;99.90;;;;;;5056380;28;20455;-67
2024/01/23 10:33:37;;;;;;;4.53;1.83;;;9.70;99.90;;;;;;5056734;28;20407;-67
2024/01/23 10:36:09;;;;;;;3.60;1.50;;;10.00;99.90;;;;;;5056656;28;20429;-68
2024/01/23 10:38:36;;;;;;;4.93;2.00;;;10.30;99.90;;;;;;5057130;28;20390;-66
2024/01/23 10:41:05;;;;;;;5.23;2.20;;;10.50;99.90;;;;;;5055209;28;20447;-67
2024/01/23 10:43:31;;;;;;;8.07;4.37;;;10.20;99.90;;;;;;5056434;28;20408;-66
2024/01/23 10:46:04;;;;;;;4.00;2.73;;;10.30;99.90;;;;;;5056276;28;20413;-67
2024/01/23 10:48:32;;;;;;;7.80;2.30;;;10.20;99.90;;;;;;5056932;28;20448;-67
2024/01/23 10:51:16;;;;;;;6.23;2.60;;;9.90;99.90;;;;;;5056720;28;20452;-67
2024/01/23 10:54:01;;;;;;;4.73;1.80;;;10.10;99.90;;;;;;5053060;28;20411;-67
2024/01/23 10:56:32;;;;;;;3.30;2.10;;;10.20;99.90;;;;;;5056130;28;20433;-68
2024/01/23 10:59:03;;;;;;;4.10;1.80;;;10.30;99.90;;;;;;5056413;28;20405;-68
2024/01/23 11:01:33;;;;;;;4.80;2.47;;;10.30;99.90;;;;;;5056348;28;20397;-67
2024/01/23 11:04:00;;;;;;;3.27;2.00;;;10.00;99.90;;;;;;5055164;28;20510;-67
2024/01/23 11:06:32;;;;;;;5.30;2.30;;;9.90;99.90;;;;;;5055762;28;20425;-67
2024/01/23 11:09:08;;;;;;;4.23;1.87;;;9.90;99.90;;;;;;5057051;28;20781;-68
2024/01/23 11:11:49;;;;;;;4.93;1.80;;;9.90;99.90;;;;;;5057456;28;20383;-69
2024/01/23 11:14:20;;;;;;;4.37;2.20;;;10.30;99.90;;;;;;5058752;28;20432;-68
2024/01/23 11:17:13;;;;;;;4.13;2.30;;;10.70;99.90;;;;;;5041533;28;20425;-69
2024/01/23 11:19:43;;;;;;;7.73;1.87;;;11.50;99.90;;;;;;5039491;28;20462;-69
2024/01/23 11:22:09;;;;;;;6.07;3.00;;;12.80;99.90;;;;;;5040482;28;20421;-68
2024/01/23 11:24:42;;;;;;;5.73;1.80;;;13.60;99.90;;;;;;5042858;28;20409;-68
2024/01/23 11:27:08;;;;;;;4.67;2.10;;;12.80;99.90;;;;;;5061034;28;20457;-68
2024/01/23 11:29:34;;;;;;;3.83;1.70;;;12.60;99.90;;;;;;5060567;28;20400;-68
2024/01/23 11:32:01;;;;;;;4.80;2.13;;;12.70;99.90;;;;;;5061706;28;20412;-68
2024/01/23 11:34:27;;;;;;;8.77;2.70;;;12.10;99.90;;;;;;5060832;28;20437;-67
2024/01/23 11:36:53;;;;;;;5.37;1.90;;;11.40;99.90;;;;;;5060506;28;20427;-67
2024/01/23 11:39:23;;;;;;;4.77;2.33;;;10.90;99.90;;;;;;5057908;28;20175;-68
2024/01/23 11:41:49;;;;;;;6.00;2.37;;;10.40;99.90;;;;;;5054541;28;20181;-68
2024/01/23 11:44:16;;;;;;;6.67;2.40;;;10.60;99.90;;;;;;5055715;28;20503;-68
2024/01/23 11:46:43;;;;;;;9.80;2.80;;;11.50;99.90;;;;;;5055012;28;20510;-68
2024/01/23 11:49:10;;;;;;;7.67;2.30;;;12.60;99.90;;;;;;5055257;28;20441;-68
2024/01/23 11:51:37;;;;;;;4.70;2.07;;;13.70;99.90;;;;;;5055038;28;20401;-68
2024/01/23 11:54:09;;;;;;;9.30;3.17;;;14.90;99.10;;;;;;5055297;28;20415;-68
2024/01/23 11:56:36;;;;;;;6.07;2.40;;;14.40;98.10;;;;;;5055111;28;20488;-67
2024/01/23 11:59:02;;;;;;;4.60;2.20;;;14.30;98.40;;;;;;5053641;28;20932;-66
2024/01/23 12:01:29;;;;;;;5.67;2.63;;;15.40;97.90;;;;;;5055123;28;20401;-67
2024/01/23 12:03:56;;;;;;;7.10;2.67;;;15.30;96.60;;;;;;5055400;28;20168;-67
2024/01/23 12:06:22;;;;;;;6.63;2.40;;;14.20;97.00;;;;;;5054695;28;20433;-67
2024/01/23 12:08:48;;;;;;;6.73;2.30;;;14.00;97.40;;;;;;5054683;28;20454;-68
2024/01/23 12:11:17;;;;;;;9.67;2.13;;;14.10;97.30;;;;;;5054903;28;20403;-68
2024/01/23 12:13:47;;;;;;;10.00;2.30;;;14.60;97.70;;;;;;5054885;28;20211;-67
2024/01/23 12:16:13;;;;;;;9.90;2.70;;;15.30;96.20;;;;;;5054518;28;20431;-68
2024/01/23 12:18:39;;;;;;;8.67;2.67;;;14.80;96.00;;;;;;5054761;28;20412;-68
2024/01/23 12:21:05;;;;;;;5.60;2.20;;;14.80;95.80;;;;;;5054371;28;20440;-68
2024/01/23 12:23:32;;;;;;;4.03;1.50;;;14.90;96.00;;;;;;5053629;28;20260;-67
2024/01/23 12:25:59;;;;;;;10.00;2.60;;;15.10;94.70;;;;;;5051096;28;21001;-67
2024/01/23 12:28:24;;;;;;;4.43;2.17;;;15.50;94.90;;;;;;5054069;28;20444;-67
2024/01/23 12:30:50;;;;;;;7.03;2.30;;;16.10;93.90;;;;;;5053693;28;20408;-67
2024/01/23 12:33:17;;;;;;;4.50;2.03;;;16.60;93.10;;;;;;5052868;28;20167;-66
2024/01/23 12:35:44;;;;;;;4.03;2.17;;;15.80;93.00;;;;;;5053795;28;20170;-67
2024/01/23 12:38:29;;;;;;;8.07;2.07;;;14.20;94.70;;;;;;5053589;28;20416;-67
2024/01/23 12:41:00;;;;;;;11.83;2.50;;;14.50;95.00;;;;;;5052741;28;20751;-67
2024/01/23 12:43:25;;;;;;;3.50;2.00;;;13.90;95.30;;;;;;5052671;28;20526;-67
2024/01/23 12:45:52;;;;;;;7.10;2.57;;;13.60;96.60;;;;;;5053509;28;20449;-68
2024/01/23 12:48:20;;;;;;;9.33;3.20;;;13.10;96.80;;;;;;5054010;28;20200;-68
2024/01/23 12:50:47;;;;;;;8.83;2.37;;;12.60;97.90;;;;;;5053650;28;20405;-68
2024/01/23 12:53:13;;;;;;;8.70;2.63;;;13.20;98.00;;;;;;5053987;28;20401;-68